AirNav   ProFlight Series 2 Aviation Headset
 
 1640 users online  

5N4 Sky Haven Airport
Enderlin, North Dakota, USA

GOING TO ENDERLIN?


FAA INFORMATION EFFECTIVE 16 JULY 2020

Location

FAA Identifier: 5N4
Lat/Long: 46-37-36.7032N 097-37-12.8359W
46-37.611720N 097-37.213932W
46.6268620,-97.6202322
(estimated)
Elevation: 1151 ft. / 351 m (estimated)
Variation: 07E (1985)
From city: 1 mile W of ENDERLIN, ND
Time zone: UTC -5 (UTC -6 during Standard Time)
Zip code: 58027

Airport Operations

Airport use: Open to the public
Activation date: 07/1947
Control tower: no
ARTCC: MINNEAPOLIS CENTER
FSS: GRAND FORKS FLIGHT SERVICE STATION
NOTAMs facility: GFK (NOTAM-D service available)
Attendance: UNATNDD
Pattern altitude: 1804 ft. MSL
Wind indicator: lighted
Segmented circle: no
Lights: ACTVT LIRL RY 12/30 - CTAF.

Airport Communications

CTAF: 122.9

Nearby radio navigation aids

VOR radial/distance  VOR name  Freq  Var
FARr248/32.5FARGO VOR/DME116.2009E

Airport Services

Fuel available: 100LL
Parking: tiedowns
Airframe service: NONE
Powerplant service: NONE
Bottled oxygen: NONE
Bulk oxygen: NONE

Runway Information

Runway 12/30

Dimensions: 2855 x 40 ft. / 870 x 12 m
Surface: asphalt, in good condition
Weight bearing capacity: 
Single wheel: 8.0
Runway edge lights: low intensity
RUNWAY 12  RUNWAY 30
Latitude: 46-37.731833N46-37.456667N
Longitude: 097-37.546333W097-36.993667W
Elevation: 1151.0 ft.1143.0 ft.
Traffic pattern: leftleft
Markings: basic, in good conditionbasic, in good condition
Obstructions: 13 ft. road, 380 ft. from runway, 130 ft. left of centerline, 13:1 slope to clearnone

Runway 3/21

Dimensions: 2083 x 23 ft. / 635 x 7 m
RWY 03/21 HAS AN ASPH OVERLAY 1320 FT X 23 FT.
Surface: asphalt/turf, in fair condition
RWY 03/21 TO BE USED FOR TWY ONLY EXCP EMERG DALGT CROSSWIND OPNS.
Weight bearing capacity: 
Single wheel: 8.0
RUNWAY 3  RUNWAY 21
Latitude: 46-37.533500N46-37.737833N
Longitude: 097-37.336667W097-36.937500W
Elevation: 1148.0 ft.1143.0 ft.
Traffic pattern: leftleft
Markings: nonenone
Obstructions: 44 ft. trees, 1100 ft. from runway, 100 ft. right of centerline, 20:1 slope to clear11 ft. sign, lighted, 200 ft. from runway, 90 ft. right of centerline
25 FT LGTD SIGN 530 FT FM THLD 120 FT R OF EXTDD CNTRLN, APCH RATIO 13:1.

Airport Ownership and Management from official FAA records

Ownership: Publicly-owned
Owner: ENDERLIN AIRPORT AUTHORITY
13923 53RD ST SE
ENDERLIN, ND 58027
Phone 701-799-6082
CHAIRMAN OF ARPT AUTH BOBBY GESKE.
Manager: BOBBY GESKE
13923 53RD ST SE
ENDERLIN, ND 58027
Phone 701-799-6082
MANAGERS ADDL PHONE 701-437-3437. ADDITIONAL CONTACT IS STEVE LUND AT 701-799-3627.

Airport Operational Statistics

Aircraft based on the field: 10
Single engine airplanes: 10
    
Aircraft operations: avg 63/week *
73% local general aviation
24% transient general aviation
2% air taxi
<1% military
* for 12-month period ending 19 September 2019

Additional Remarks

ELECTRICAL HOOKUP FOR ACFT FOR WINTERTIME USE NEXT TO PILOT LOUNGE.
RWY 12/30 THLD LGTS 86 FT OUTSIDE RWY 30 END; EDGE LGTS 28 FT FM RWY EDGES.
NO SNOW REMOVAL AVBL ON RY 03/21.
CFM WINTER CONDS & SN REMOVAL WITH AMGR AT 701-799-6082.
BIRDS & DEER ON AND INV OF ARPT.
FOR CD CTC MINNEAPOLIS ARTCC AT 651-463-5588.

Instrument Procedures

There are no published instrument procedures at 5N4.

Some nearby airports with instrument procedures:

6L3 - Lisbon Municipal Airport (12 nm S)
5N8 - Casselton Robert Miller Regional Airport (22 nm NE)
KGWR - Gwinner Airport-Roger Melroe Field (25 nm S)
KBAC - Barnes County Municipal Airport (25 nm NW)
K74 - Robert Odegaard Field Airport (26 nm E)
 
Loc | Ops | Rwys | IFR | FBO | Links
Com | Nav | Svcs | Stats | Notes

Bismarck Aero Center
AirBoss

 
Area around 5N4 (Sky Haven Airport)
 
Road maps at: MapQuest Bing Google
 
Aerial photo
WARNING: Photo may not be current or correct
Aerial photo of 5N4 (Sky Haven Airport)
Do you have a better or more recent aerial photo of Sky Haven Airport that you would like to share? If so, please send us your photo.

 
Sectional chart

 
Airport distance calculator
Flying to Sky Haven Airport? Find the distance to fly.

From to 5N4

Sunrise and sunset
Times for 04-Aug-2020
 Local
(UTC-5)
 Zulu
(UTC)
Morning civil twilight05:4210:42
Sunrise06:1711:17
Sunset20:5601:56
Evening civil twilight21:3002:30

Current date and time
Zulu (UTC)  04-Aug-2020 18:35:01
Local (UTC-5)  04-Aug-2020 13:35:01
 
METAR
KGWR 
25nm S 
041815Z AUTO VRB04G10KT 10SM FEW055 24/13 A3010 RMK A01
KBAC 
25nm NW 
041815Z AUTO 17009G14KT 130V190 10SM FEW046 23/13 A3012 RMK AO2
K2D5 
33nm SW 
041815Z AUTO 16008G13KT 10SM CLR 24/13 A3011 RMK AO2
KFAR 
38nm NE 
041753Z AUTO 17006KT 10SM BKN050 23/12 A3011 RMK AO2 SLP196 T02280122 10233 20139 58006
KJKJ 
41nm E 
041815Z AUTO 19007KT 145V205 SCT050 24/07 A3012 RMK AO2 PWINO
KJMS 
47nm NW 
041756Z AUTO 16009KT 10SM FEW050 24/11 A3009 RMK AO2 SLP186 T02390111 10244 20106 58006
TAF
KFAR 
38nm NE 
041739Z 0418/0518 VRB05KT P6SM FEW250 FM051500 15009KT P6SM OVC035
KJMS 
47nm NW 
041724Z 0418/0518 17010KT P6SM FEW090 FEW200 FM050600 15005KT 6SM SHRA BR VCTS SCT045CB OVC070 FM051000 13005KT 6SM SHRA BR VCTS BKN030CB FM051200 16005KT P6SM SCT025 FM051600 07005KT P6SM SCT025
NOTAMs
Click for the latest NOTAMs
NOTAMs are issued by the DoD/FAA and will open in a separate window not controlled by AirNav.

 

 
 

FBO, Fuel Providers, and Aircraft Ground Support

  
 Business Name 
 
 Contact 
 
 Services / Description 
 
Fuel Prices
 
Comments
  
Enderlin Airport Authority 701-799-6082
no information available

If you are affiliated with Enderlin Airport Authority and would like to show here your services, contact info, web link, logo, and more, click here
100LL
SS $4.17 
 Updated 17-Oct-2017
 
   write
SS=Self service
Update Fuel Prices
 

Would you like to see your business listed on this page?

 If your business provides an interesting product or service to pilots, flight crews, aircraft, or users of the Sky Haven Airport, you should consider listing it here.  To start the listing process, click on the button below
 
Add a business
 

Other Pages about Sky Haven Airport

www.ransomcountynd.com/index.asp?Type=B_BASIC&DE={F71A4D32-5EF1-4B7E-901B-A3F95D1F0A8E}
 
Update a link
 
Copyright © AirNav, LLC. All rights reserved. Privacy Policy  Contact